createdAt,value
2019-03-25T00:01:49.616Z,99573.34
2019-03-25T00:04:15.880Z,99573.45
2019-03-25T00:06:42.089Z,99568.97
2019-03-25T00:09:08.269Z,99560.02
2019-03-25T00:11:34.637Z,99571.13
2019-03-25T00:14:00.933Z,99562.52
2019-03-25T00:16:27.200Z,99562.91
2019-03-25T00:18:53.369Z,99551.98
2019-03-25T00:21:19.567Z,99550.67
2019-03-25T00:23:45.746Z,99555.23
2019-03-25T00:26:11.900Z,99547.29
2019-03-25T00:28:38.012Z,99556.09
2019-03-25T00:31:04.172Z,99551.23
2019-03-25T00:33:30.337Z,99541.05
2019-03-25T00:35:56.539Z,99539.03
2019-03-25T00:38:22.701Z,99536.03
2019-03-25T00:40:49.032Z,99532.34
2019-03-25T00:43:15.285Z,99531.06
2019-03-25T00:45:41.450Z,99529.05
2019-03-25T00:48:07.612Z,99528.38
2019-03-25T00:50:34.043Z,99529.48
2019-03-25T00:53:00.241Z,99527.36
2019-03-25T00:55:26.364Z,99523.64
2019-03-25T00:57:52.567Z,99521.03
2019-03-25T01:00:18.823Z,99516.13
2019-03-25T01:02:44.994Z,99513.06
2019-03-25T01:05:11.307Z,99509.62
2019-03-25T01:07:37.507Z,99505.69
2019-03-25T01:10:06.011Z,99504.16
2019-03-25T01:12:32.223Z,99498.84
2019-03-25T01:14:58.398Z,99499.80
2019-03-25T01:17:24.555Z,99497.69
2019-03-25T01:19:50.869Z,99489.84
2019-03-25T01:22:17.024Z,99494.20
2019-03-25T01:24:43.189Z,99494.91
2019-03-25T01:27:09.410Z,99487.02
2019-03-25T01:29:35.572Z,99483.89
2019-03-25T01:32:01.739Z,99481.44
2019-03-25T01:34:28.044Z,99484.23
2019-03-25T01:36:54.216Z,99486.31
2019-03-25T01:39:20.389Z,99478.85
2019-03-25T01:41:46.589Z,99478.31
2019-03-25T01:44:12.758Z,99468.91
2019-03-25T01:46:38.923Z,99463.06
2019-03-25T01:49:05.137Z,99459.06
2019-03-25T01:51:31.302Z,99456.46
2019-03-25T01:53:57.461Z,99453.20
2019-03-25T01:56:23.671Z,99448.35
2019-03-25T01:58:49.841Z,99455.00
2019-03-25T02:01:15.999Z,99441.28
2019-03-25T02:03:42.205Z,99442.98
2019-03-25T02:06:08.464Z,99437.41
2019-03-25T02:08:34.629Z,99437.99
2019-03-25T02:11:00.849Z,99445.63
2019-03-25T02:13:27.014Z,99436.87
2019-03-25T02:15:53.280Z,99437.22
2019-03-25T02:18:19.501Z,99448.20
2019-03-25T02:20:45.662Z,99444.83
2019-03-25T02:23:11.918Z,99448.61
2019-03-25T02:25:38.215Z,99440.70
2019-03-25T02:28:04.474Z,99443.45
2019-03-25T02:30:30.746Z,99440.99
2019-03-25T02:32:56.942Z,99436.70
2019-03-25T02:35:23.216Z,99430.02
2019-03-25T02:37:49.363Z,99428.47
2019-03-25T02:40:15.556Z,99432.20
2019-03-25T02:42:41.837Z,99429.31
2019-03-25T02:45:08.685Z,99419.92
2019-03-25T02:47:34.880Z,99416.00
2019-03-25T02:50:01.139Z,99414.86
2019-03-25T02:52:27.307Z,99419.34
2019-03-25T02:54:53.509Z,99413.84
2019-03-25T02:57:19.672Z,99411.48
2019-03-25T02:59:45.827Z,99406.89
2019-03-25T03:02:12.146Z,99408.14
2019-03-25T03:04:38.301Z,99403.80
2019-03-25T03:07:04.559Z,99400.30
2019-03-25T03:09:30.787Z,99395.88
2019-03-25T03:11:57.093Z,99395.11
2019-03-25T03:14:23.252Z,99388.84
2019-03-25T03:16:49.473Z,99391.23
2019-03-25T03:19:15.741Z,99386.81
2019-03-25T03:21:41.898Z,99385.11
2019-03-25T03:24:08.094Z,99380.67
2019-03-25T03:26:34.266Z,99387.09
2019-03-25T03:29:00.424Z,99384.08
2019-03-25T03:31:26.786Z,99378.42
2019-03-25T03:33:53.014Z,99378.52
2019-03-25T03:36:19.183Z,99379.58
2019-03-25T03:38:45.487Z,99378.97
2019-03-25T03:41:11.644Z,99380.21
2019-03-25T03:43:37.813Z,99373.36
2019-03-25T03:46:04.114Z,99366.77
2019-03-25T03:48:30.273Z,99366.95
2019-03-25T03:50:57.039Z,99364.84
2019-03-25T03:53:23.262Z,99364.31
2019-03-25T03:55:50.241Z,99359.28
2019-03-25T03:58:16.480Z,99358.73
2019-03-25T04:00:42.694Z,99352.31
2019-03-25T04:03:08.884Z,99357.30
2019-03-25T04:05:35.044Z,99355.09
2019-03-25T04:08:01.222Z,99351.28
2019-03-25T04:10:27.391Z,99351.16
2019-03-25T04:13:09.267Z,99352.72
2019-03-25T04:15:35.536Z,99351.08
2019-03-25T04:18:01.705Z,99348.17
2019-03-25T04:20:27.929Z,99345.54
2019-03-25T04:22:54.084Z,99334.70
2019-03-25T04:25:20.242Z,99331.37
2019-03-25T04:27:46.442Z,99329.80
2019-03-25T04:30:13.201Z,99324.14
2019-03-25T04:32:39.376Z,99324.55
2019-03-25T04:35:05.694Z,99327.47
2019-03-25T04:37:31.844Z,99322.72
2019-03-25T04:39:58.000Z,99307.67
2019-03-25T04:42:24.219Z,99291.70
2019-03-25T04:44:50.389Z,99293.35
2019-03-25T04:47:16.550Z,99285.77
2019-03-25T04:49:42.755Z,99284.48
2019-03-25T04:52:08.917Z,99280.58
2019-03-25T04:54:35.078Z,99275.25
2019-03-25T04:57:01.384Z,99280.60
2019-03-25T04:59:27.555Z,99271.13
2019-03-25T05:01:53.821Z,99260.84
2019-03-25T05:04:20.037Z,99252.50
2019-03-25T05:06:46.293Z,99248.55
2019-03-25T05:09:12.468Z,99242.67
2019-03-25T05:11:38.768Z,99249.77
2019-03-25T05:14:04.989Z,99247.66
2019-03-25T05:16:31.141Z,99240.33
2019-03-25T05:18:57.335Z,99241.20
2019-03-25T05:21:23.498Z,99237.45
2019-03-25T05:23:49.766Z,99246.78
2019-03-25T05:26:15.970Z,99254.41
2019-03-25T05:28:42.126Z,99259.73
2019-03-25T05:31:08.291Z,99249.61
2019-03-25T05:33:34.486Z,99249.48
2019-03-25T05:36:00.645Z,99251.17
2019-03-25T05:38:26.909Z,99246.30
2019-03-25T05:40:53.117Z,99240.08
2019-03-25T05:43:21.156Z,99237.69
2019-03-25T05:45:47.771Z,99228.17
2019-03-25T05:48:13.973Z,99223.63
2019-03-25T05:50:40.142Z,99229.67
2019-03-25T05:53:06.299Z,99219.89
2019-03-25T05:55:32.507Z,99224.66
2019-03-25T05:57:58.793Z,99221.88
2019-03-25T06:00:26.828Z,99223.53
2019-03-25T06:02:53.021Z,99216.72
2019-03-25T06:05:19.187Z,99218.72
2019-03-25T06:07:45.336Z,99222.45
2019-03-25T06:10:13.240Z,99226.35
2019-03-25T06:12:42.342Z,99225.80
2019-03-25T06:15:10.767Z,99224.13
2019-03-25T06:17:37.096Z,99227.23
2019-03-25T06:20:07.431Z,99222.92
2019-03-25T06:22:34.483Z,99229.59
2019-03-25T06:25:00.788Z,99230.78
2019-03-25T06:27:26.950Z,99227.54
2019-03-25T06:29:53.111Z,99225.45
2019-03-25T06:32:19.328Z,99212.69
2019-03-25T06:34:45.487Z,99211.11
2019-03-25T06:37:11.649Z,99215.82
2019-03-25T06:39:37.836Z,99213.75
2019-03-25T06:42:03.989Z,99207.76
2019-03-25T06:44:30.153Z,99198.67
2019-03-25T06:46:56.358Z,99197.36
2019-03-25T06:49:23.126Z,99187.81
2019-03-25T06:51:49.283Z,99180.30
2019-03-25T06:54:15.490Z,99172.44
2019-03-25T06:56:41.659Z,99174.28
2019-03-25T06:59:07.817Z,99170.82
2019-03-25T07:01:34.003Z,99169.20
2019-03-25T07:04:00.264Z,99157.30
2019-03-25T07:06:26.526Z,99159.89
2019-03-25T07:08:52.733Z,99162.55
2019-03-25T07:11:18.889Z,99158.17
2019-03-25T07:13:45.044Z,99159.20
2019-03-25T07:16:11.812Z,99150.93
2019-03-25T07:18:37.972Z,99150.03
2019-03-25T07:21:04.234Z,99150.92
2019-03-25T07:23:30.425Z,99149.23
2019-03-25T07:25:56.588Z,99151.22
2019-03-25T07:28:22.753Z,99144.88
2019-03-25T07:30:49.051Z,99146.93
2019-03-25T07:33:15.205Z,99145.86
2019-03-25T07:35:41.354Z,99140.41
2019-03-25T07:38:07.545Z,99132.37
2019-03-25T07:40:33.705Z,99133.77
2019-03-25T07:42:59.884Z,99132.49
2019-03-25T07:45:26.083Z,99133.00
2019-03-25T07:47:52.236Z,99133.27
2019-03-25T07:50:18.396Z,99129.65
2019-03-25T07:52:44.600Z,99125.11
2019-03-25T07:55:11.182Z,99120.81
2019-03-25T07:57:47.656Z,99116.02
2019-03-25T08:00:14.286Z,99111.56
2019-03-25T08:02:40.604Z,99115.22
2019-03-25T08:05:07.063Z,99104.16
2019-03-25T08:07:33.277Z,99095.56
2019-03-25T08:09:59.448Z,99095.88
2019-03-25T08:12:25.610Z,99094.95
2019-03-25T08:14:51.798Z,99086.05
2019-03-25T08:17:18.053Z,99085.48
2019-03-25T08:19:44.304Z,99094.40
2019-03-25T08:22:10.639Z,99088.61
2019-03-25T08:24:36.804Z,99083.40
2019-03-25T08:27:02.972Z,99083.70
2019-03-25T08:29:29.188Z,99076.83
2019-03-25T08:31:55.348Z,99068.56
2019-03-25T08:34:21.598Z,99067.13
2019-03-25T08:36:47.791Z,99071.47
2019-03-25T08:39:14.052Z,99058.98
2019-03-25T08:41:40.203Z,99061.75
2019-03-25T08:44:06.407Z,99054.19
2019-03-25T08:46:32.790Z,99039.41
2019-03-25T08:48:58.941Z,99041.41
2019-03-25T08:51:25.154Z,99038.83
2019-03-25T08:53:51.309Z,99035.53
2019-03-25T08:56:17.465Z,99030.89
2019-03-25T08:58:43.768Z,99025.98
2019-03-25T09:01:09.925Z,99027.78
2019-03-25T09:03:36.081Z,99021.59
2019-03-25T09:06:02.374Z,99018.87
2019-03-25T09:08:28.545Z,99014.34
2019-03-25T09:10:54.801Z,99008.52
2019-03-25T09:13:21.003Z,99009.56
2019-03-25T09:15:47.263Z,99008.18
2019-03-25T09:18:13.558Z,99012.38
2019-03-25T09:20:40.259Z,98997.44
2019-03-25T09:23:06.522Z,98992.38
2019-03-25T09:25:32.681Z,99003.75
2019-03-25T09:27:58.876Z,98994.08
2019-03-25T09:30:51.284Z,98993.36
2019-03-25T09:33:17.599Z,98994.37
2019-03-25T09:35:43.783Z,98988.84
2019-03-25T09:38:09.909Z,98985.48
2019-03-25T09:40:36.218Z,98979.41
2019-03-25T09:43:02.376Z,98965.56
2019-03-25T09:45:28.638Z,98958.21
2019-03-25T09:47:54.840Z,98961.61
2019-03-25T09:50:21.096Z,98949.45
2019-03-25T09:52:47.259Z,98946.98
2019-03-25T09:55:13.452Z,98945.46
2019-03-25T09:57:39.721Z,98942.44
2019-03-25T10:00:08.701Z,98936.03
2019-03-25T10:02:34.900Z,98933.35
2019-03-25T10:05:01.161Z,98925.27
2019-03-25T10:07:28.538Z,98918.05
2019-03-25T10:09:54.924Z,98915.75
2019-03-25T10:12:21.091Z,98909.38
2019-03-25T10:14:47.250Z,98912.56
2019-03-25T10:17:13.558Z,98898.33
2019-03-25T10:19:39.707Z,98895.05
2019-03-25T10:22:05.871Z,98893.44
2019-03-25T10:24:32.094Z,98891.19
2019-03-25T10:26:58.255Z,98885.64
2019-03-25T10:29:24.522Z,98879.13
2019-03-25T10:31:50.727Z,98877.11
2019-03-25T10:34:16.880Z,98876.09
2019-03-25T10:36:43.147Z,98877.18
2019-03-25T10:39:09.355Z,98863.52
2019-03-25T10:41:38.331Z,98862.69
2019-03-25T10:44:03.587Z,98860.47
2019-03-25T10:46:29.782Z,98869.38
2019-03-25T10:48:55.948Z,98855.72
2019-03-25T10:51:22.211Z,98859.23
2019-03-25T10:53:48.420Z,98852.78
2019-03-25T10:56:14.595Z,98851.52
2019-03-25T10:58:40.747Z,98845.70
2019-03-25T11:01:09.523Z,98842.69
2019-03-25T11:03:35.717Z,98834.70
2019-03-25T11:06:01.882Z,98834.59
2019-03-25T11:08:28.189Z,98823.81
2019-03-25T11:10:54.339Z,98817.41
2019-03-25T11:13:20.501Z,98821.89
2019-03-25T11:15:46.800Z,98822.53
2019-03-25T11:18:12.957Z,98824.48
2019-03-25T11:20:39.268Z,98810.61
2019-03-25T11:23:05.763Z,98811.56
2019-03-25T11:25:31.925Z,98811.89
2019-03-25T11:27:58.179Z,98800.69
2019-03-25T11:30:37.338Z,98802.62
2019-03-25T11:33:03.502Z,98784.95
2019-03-25T11:35:29.669Z,98772.30
2019-03-25T11:37:55.985Z,98780.94
2019-03-25T11:40:22.144Z,98773.30
2019-03-25T11:42:48.418Z,98774.44
2019-03-25T11:45:14.719Z,98777.57
2019-03-25T11:47:41.189Z,98762.75
2019-03-25T11:50:07.948Z,98766.82
2019-03-25T11:52:34.151Z,98760.97
2019-03-25T11:55:00.352Z,98765.94
2019-03-25T11:57:26.470Z,98765.64
2019-03-25T11:59:52.672Z,98754.32
2019-03-25T12:02:18.935Z,98748.09
2019-03-25T12:04:45.087Z,98745.66
2019-03-25T12:07:11.293Z,98744.63
2019-03-25T12:09:37.454Z,98740.79
2019-03-25T12:12:03.622Z,98735.02
2019-03-25T12:14:29.921Z,98726.53
2019-03-25T12:16:56.076Z,98730.48
2019-03-25T12:19:22.232Z,98722.57
2019-03-25T12:21:48.452Z,98715.12
2019-03-25T12:24:14.713Z,98711.95
2019-03-25T12:26:40.882Z,98712.91
2019-03-25T12:29:07.139Z,98709.39
2019-03-25T12:31:33.302Z,98706.03
2019-03-25T12:33:59.560Z,98711.59
2019-03-25T12:36:25.890Z,98702.28
2019-03-25T12:38:52.047Z,98697.17
2019-03-25T12:41:18.201Z,98693.34
2019-03-25T12:43:44.511Z,98688.34
2019-03-25T12:46:10.671Z,98684.41
2019-03-25T12:48:37.244Z,98677.94
2019-03-25T12:51:03.488Z,98682.20
2019-03-25T12:53:29.656Z,98679.73
2019-03-25T12:55:55.916Z,98674.84
2019-03-25T12:58:22.434Z,98671.07
2019-03-25T13:00:48.600Z,98662.78
2019-03-25T13:03:14.750Z,98659.98
2019-03-25T13:05:40.963Z,98659.74
2019-03-25T13:08:07.517Z,98659.74
2019-03-25T13:10:33.672Z,98657.23
2019-03-25T13:12:59.882Z,98666.13
2019-03-25T13:15:26.039Z,98662.25
2019-03-25T13:17:52.199Z,98669.47
2019-03-25T13:20:18.403Z,98662.70
2019-03-25T13:22:45.478Z,98644.75
2019-03-25T13:25:11.729Z,98645.59
2019-03-25T13:27:37.926Z,98656.00
2019-03-25T13:30:07.795Z,98653.31
2019-03-25T13:32:33.951Z,98644.13
2019-03-25T13:35:00.328Z,98644.89
2019-03-25T13:37:26.511Z,98649.84
2019-03-25T13:39:52.670Z,98649.91
2019-03-25T13:42:18.862Z,98638.70
2019-03-25T13:44:45.039Z,98636.12
2019-03-25T13:47:11.204Z,98627.64
2019-03-25T13:49:37.406Z,98637.41
2019-03-25T13:52:03.571Z,98632.23
2019-03-25T13:54:29.738Z,98631.04
2019-03-25T13:56:56.059Z,98626.44
2019-03-25T13:59:22.236Z,98634.34
2019-03-25T14:01:48.514Z,98623.16
2019-03-25T14:04:14.718Z,98623.16
2019-03-25T14:06:40.880Z,98616.72
2019-03-25T14:09:07.344Z,98615.17
2019-03-25T14:11:33.547Z,98610.22
2019-03-25T14:14:00.329Z,98618.88
2019-03-25T14:16:26.646Z,98624.97
2019-03-25T14:18:52.854Z,98617.09
2019-03-25T14:21:19.012Z,98613.07
2019-03-25T14:23:45.226Z,98608.88
2019-03-25T14:26:11.428Z,98616.78
2019-03-25T14:28:37.587Z,98609.51
2019-03-25T14:31:03.760Z,98608.36
2019-03-25T14:33:29.947Z,98608.00
2019-03-25T14:35:56.104Z,98604.08
2019-03-25T14:38:22.268Z,98610.41
2019-03-25T14:40:48.473Z,98605.91
2019-03-25T14:43:14.622Z,98602.92
2019-03-25T14:45:40.903Z,98604.44
2019-03-25T14:48:07.514Z,98608.52
2019-03-25T14:50:33.671Z,98609.44
2019-03-25T14:52:59.819Z,98602.53
2019-03-25T14:55:26.139Z,98603.20
2019-03-25T14:57:52.308Z,98608.23
2019-03-25T15:00:24.966Z,98597.08
2019-03-25T15:02:47.210Z,98602.66
2019-03-25T15:05:13.601Z,98602.25
2019-03-25T15:07:39.882Z,98600.47
2019-03-25T15:10:07.065Z,98603.48
2019-03-25T15:12:33.226Z,98602.67
2019-03-25T15:14:59.491Z,98597.56
2019-03-25T15:17:25.692Z,98600.53
2019-03-25T15:19:51.861Z,98600.27
2019-03-25T15:22:18.011Z,98597.95
2019-03-25T15:24:44.265Z,98599.25
2019-03-25T15:27:10.440Z,98602.95
2019-03-25T15:29:36.610Z,98599.77
2019-03-25T15:32:02.807Z,98593.58
2019-03-25T15:34:28.967Z,98601.31
2019-03-25T15:36:55.222Z,98607.30
2019-03-25T15:39:21.520Z,98598.37
2019-03-25T15:41:47.697Z,98595.26
2019-03-25T15:44:16.651Z,98590.55
2019-03-25T15:47:01.588Z,98587.94
2019-03-25T15:49:27.745Z,98589.66
2019-03-25T15:51:54.028Z,98585.73
2019-03-25T15:54:20.326Z,98582.02
2019-03-25T15:56:46.489Z,98586.66
2019-03-25T15:59:12.649Z,98586.22
2019-03-25T16:01:38.853Z,98583.20
2019-03-25T16:04:05.014Z,98587.70
2019-03-25T16:06:31.196Z,98593.19
2019-03-25T16:08:57.382Z,98596.11
2019-03-25T16:11:23.549Z,98592.99
2019-03-25T16:13:49.709Z,98598.87
2019-03-25T16:16:15.909Z,98604.09
2019-03-25T16:18:42.068Z,98601.91
2019-03-25T16:21:08.336Z,98604.34
2019-03-25T16:23:35.033Z,98603.16
2019-03-25T16:26:01.503Z,98608.59
2019-03-25T16:28:27.651Z,98617.31
2019-03-25T16:30:58.798Z,98618.98
2019-03-25T16:33:22.156Z,98622.77
2019-03-25T16:35:48.313Z,98629.09
2019-03-25T16:38:14.627Z,98619.53
2019-03-25T16:40:40.895Z,98621.48
2019-03-25T16:43:07.051Z,98629.53
2019-03-25T16:45:33.253Z,98622.53
2019-03-25T16:47:59.420Z,98617.69
2019-03-25T16:50:25.682Z,98622.37
2019-03-25T16:52:51.891Z,98623.99
2019-03-25T16:55:18.044Z,98623.57
2019-03-25T16:57:44.231Z,98618.42
2019-03-25T17:00:10.533Z,98617.80
2019-03-25T17:02:36.719Z,98620.41
2019-03-25T17:05:04.174Z,98619.56
2019-03-25T17:07:30.385Z,98627.81
2019-03-25T17:09:56.553Z,98633.03
2019-03-25T17:12:22.844Z,98618.28
2019-03-25T17:14:49.062Z,98625.58
2019-03-25T17:17:15.222Z,98631.21
2019-03-25T17:19:41.380Z,98623.64
2019-03-25T17:22:07.574Z,98623.31
2019-03-25T17:24:33.735Z,98633.05
2019-03-25T17:27:00.948Z,98627.03
2019-03-25T17:29:27.151Z,98628.38
2019-03-25T17:31:53.340Z,98623.91
2019-03-25T17:34:19.599Z,98622.93
2019-03-25T17:36:45.833Z,98623.81
2019-03-25T17:39:12.123Z,98617.14
2019-03-25T17:41:38.285Z,98621.14
2019-03-25T17:44:04.482Z,98620.41
2019-03-25T17:46:30.634Z,98626.53
2019-03-25T17:48:56.850Z,98627.98
2019-03-25T17:51:23.047Z,98629.63
2019-03-25T17:53:49.199Z,98619.63
2019-03-25T17:56:15.458Z,98630.20
2019-03-25T17:58:41.654Z,98620.91
2019-03-25T18:01:10.014Z,98624.70
2019-03-25T18:03:36.173Z,98627.14
2019-03-25T18:06:02.474Z,98622.25
2019-03-25T18:08:28.623Z,98626.34
2019-03-25T18:10:54.798Z,98617.02
2019-03-25T18:13:22.542Z,98627.94
2019-03-25T18:15:49.165Z,98626.45
2019-03-25T18:18:15.427Z,98627.73
2019-03-25T18:20:41.728Z,98631.88
2019-03-25T18:23:07.881Z,98633.31
2019-03-25T18:25:34.048Z,98632.69
2019-03-25T18:28:00.396Z,98635.66
2019-03-25T18:30:48.109Z,98639.22
2019-03-25T18:33:14.314Z,98638.66
2019-03-25T18:35:40.475Z,98632.28
2019-03-25T18:38:06.748Z,98639.47
2019-03-25T18:40:32.936Z,98638.98
2019-03-25T18:42:59.214Z,98638.95
2019-03-25T18:45:25.487Z,98640.50
2019-03-25T18:47:53.372Z,98638.80
2019-03-25T18:50:19.754Z,98642.72
2019-03-25T18:52:45.924Z,98645.74
2019-03-25T18:55:12.104Z,98637.70
2019-03-25T18:57:38.254Z,98641.48
2019-03-25T19:00:06.314Z,98645.72
2019-03-25T19:02:32.619Z,98645.63
2019-03-25T19:04:58.773Z,98650.06
2019-03-25T19:07:25.370Z,98648.26
2019-03-25T19:09:52.723Z,98636.40
2019-03-25T19:12:18.993Z,98644.37
2019-03-25T19:14:45.146Z,98636.33
2019-03-25T19:17:11.456Z,98645.28
2019-03-25T19:19:37.662Z,98643.20
2019-03-25T19:22:05.355Z,98638.88
2019-03-25T19:24:31.874Z,98642.55
2019-03-25T19:26:58.033Z,98643.45
2019-03-25T19:29:24.266Z,98642.83
2019-03-25T19:31:50.461Z,98646.35
2019-03-25T19:34:16.590Z,98645.41
2019-03-25T19:36:42.777Z,98642.31
2019-03-25T19:39:08.941Z,98641.12
2019-03-25T19:41:35.135Z,98638.78
2019-03-25T19:44:01.301Z,98645.00
2019-03-25T19:46:27.507Z,98641.04
2019-03-25T19:48:53.743Z,98644.69
2019-03-25T19:51:20.042Z,98640.66
2019-03-25T19:53:46.244Z,98647.84
2019-03-25T19:56:12.371Z,98640.39
2019-03-25T19:58:38.522Z,98644.48
2019-03-25T20:01:04.847Z,98637.47
2019-03-25T20:03:33.097Z,98651.70
2019-03-25T20:06:04.741Z,98651.91
2019-03-25T20:08:30.947Z,98647.66
2019-03-25T20:10:57.132Z,98649.92
2019-03-25T20:13:23.262Z,98645.80
2019-03-25T20:15:49.460Z,98645.95
2019-03-25T20:18:15.615Z,98652.09
2019-03-25T20:20:41.920Z,98650.73
2019-03-25T20:23:08.071Z,98644.52
2019-03-25T20:25:34.346Z,98644.17
2019-03-25T20:28:00.649Z,98643.58
2019-03-25T20:30:26.876Z,98649.59
2019-03-25T20:32:53.141Z,98646.73
2019-03-25T20:35:19.444Z,98659.48
2019-03-25T20:37:45.609Z,98653.52
2019-03-25T20:40:11.793Z,98646.08
2019-03-25T20:42:38.034Z,98650.94
2019-03-25T20:45:06.256Z,98653.22
2019-03-25T20:47:32.406Z,98655.83
2019-03-25T20:49:59.020Z,98656.73
2019-03-25T20:52:25.316Z,98654.84
2019-03-25T20:54:51.475Z,98656.45
2019-03-25T20:57:17.707Z,98656.72
2019-03-25T20:59:43.937Z,98656.58
2019-03-25T21:02:10.199Z,98649.92
2019-03-25T21:04:36.369Z,98657.19
2019-03-25T21:07:02.590Z,98653.44
2019-03-25T21:09:28.829Z,98657.52
2019-03-25T21:11:55.022Z,98655.36
2019-03-25T21:14:21.315Z,98653.75
2019-03-25T21:16:47.592Z,98652.56
2019-03-25T21:19:13.876Z,98662.67
2019-03-25T21:21:40.073Z,98653.46
2019-03-25T21:24:06.234Z,98657.15
2019-03-25T21:26:32.484Z,98652.66
2019-03-25T21:28:58.708Z,98651.58
2019-03-25T21:31:25.044Z,98649.58
2019-03-25T21:33:51.376Z,98651.27
2019-03-25T21:36:17.562Z,98653.69
2019-03-25T21:38:43.838Z,98649.38
2019-03-25T21:41:09.961Z,98646.25
2019-03-25T21:43:36.145Z,98643.58
2019-03-25T21:46:02.517Z,98650.31
2019-03-25T21:48:28.747Z,98646.08
2019-03-25T21:50:54.993Z,98648.51
2019-03-25T21:53:21.402Z,98648.59
2019-03-25T21:55:47.713Z,98650.34
2019-03-25T21:58:14.023Z,98654.85
2019-03-25T22:00:40.173Z,98648.75
2019-03-25T22:03:12.084Z,98649.59
2019-03-25T22:05:34.449Z,98650.48
2019-03-25T22:08:00.598Z,98652.41
2019-03-25T22:10:26.758Z,98648.14
2019-03-25T22:12:52.959Z,98651.47
2019-03-25T22:15:19.217Z,98648.46
2019-03-25T22:17:45.376Z,98649.45
2019-03-25T22:20:11.565Z,98648.97
2019-03-25T22:22:37.828Z,98655.83
2019-03-25T22:25:05.788Z,98652.47
2019-03-25T22:27:31.973Z,98659.24
2019-03-25T22:29:58.130Z,98658.48
2019-03-25T22:32:24.327Z,98661.03
2019-03-25T22:34:50.521Z,98663.59
2019-03-25T22:37:16.672Z,98661.08
2019-03-25T22:39:42.833Z,98662.84
2019-03-25T22:42:09.027Z,98666.77
2019-03-25T22:44:35.188Z,98670.05
2019-03-25T22:47:01.344Z,98670.23
2019-03-25T22:49:27.627Z,98672.27
2019-03-25T22:51:53.788Z,98674.33
2019-03-25T22:54:19.945Z,98675.59
2019-03-25T22:56:46.243Z,98676.73
2019-03-25T22:59:12.505Z,98676.67
2019-03-25T23:01:38.655Z,98672.27
2019-03-25T23:04:04.864Z,98679.79
2019-03-25T23:06:31.027Z,98681.20
2019-03-25T23:08:57.182Z,98676.84
2019-03-25T23:11:23.389Z,98685.74
2019-03-25T23:13:49.556Z,98682.77
2019-03-25T23:16:15.727Z,98685.77
2019-03-25T23:18:41.928Z,98685.20
2019-03-25T23:21:08.099Z,98682.23
2019-03-25T23:23:34.253Z,98678.72
2019-03-25T23:26:00.459Z,98673.55
2019-03-25T23:28:26.606Z,98678.87
2019-03-25T23:30:52.866Z,98673.42
2019-03-25T23:33:19.997Z,98678.39
2019-03-25T23:35:46.152Z,98674.16
2019-03-25T23:38:12.306Z,98681.16
2019-03-25T23:40:38.512Z,98681.75
2019-03-25T23:43:04.672Z,98678.72
2019-03-25T23:45:30.831Z,98675.92
2019-03-25T23:47:57.015Z,98677.70
2019-03-25T23:50:23.273Z,98676.88
2019-03-25T23:52:49.434Z,98677.61
2019-03-25T23:55:15.658Z,98676.02
2019-03-25T23:57:41.822Z,98673.50
